createdAt,value
2019-03-03T00:01:01.453Z,6.24
2019-03-03T00:03:47.178Z,6.27
2019-03-03T00:06:13.012Z,6.27
2019-03-03T00:08:38.865Z,6.30
2019-03-03T00:11:04.706Z,6.30
2019-03-03T00:13:30.557Z,6.33
2019-03-03T00:15:56.401Z,6.31
2019-03-03T00:18:22.207Z,6.34
2019-03-03T00:20:48.055Z,6.33
2019-03-03T00:23:13.891Z,6.36
2019-03-03T00:25:39.975Z,6.34
2019-03-03T00:28:07.487Z,6.33
2019-03-03T00:30:53.292Z,6.37
2019-03-03T00:33:38.988Z,6.35
2019-03-03T00:39:18.838Z,6.32
2019-03-03T00:44:40.412Z,6.36
2019-03-03T00:47:08.135Z,6.41
2019-03-03T00:49:38.351Z,6.44
2019-03-03T00:52:08.934Z,6.47
2019-03-03T00:54:42.436Z,6.47
2019-03-03T00:57:15.950Z,6.51
2019-03-03T00:59:43.683Z,6.52
2019-03-03T01:02:20.027Z,6.52
2019-03-03T01:04:50.251Z,6.53
2019-03-03T01:07:26.524Z,6.53
2019-03-03T01:09:57.019Z,6.51
2019-03-03T01:12:25.061Z,6.51
2019-03-03T01:14:52.799Z,6.59
2019-03-03T01:17:23.549Z,6.62
2019-03-03T01:19:51.283Z,6.63
2019-03-03T01:22:31.185Z,6.65
2019-03-03T01:24:57.002Z,6.66
2019-03-03T01:27:23.044Z,6.68
2019-03-03T01:29:48.864Z,6.71
2019-03-03T01:32:14.677Z,6.74
2019-03-03T01:34:40.504Z,6.78
2019-03-03T01:37:06.313Z,6.79
2019-03-03T01:39:32.134Z,6.78
2019-03-03T01:41:57.939Z,6.80
2019-03-03T01:44:23.769Z,6.83
2019-03-03T01:46:49.766Z,6.85
2019-03-03T01:49:15.608Z,6.87
2019-03-03T01:51:41.445Z,6.86
2019-03-03T01:54:07.285Z,6.89
2019-03-03T01:56:33.096Z,6.91
2019-03-03T01:58:58.899Z,6.91
2019-03-03T02:01:24.730Z,6.93
2019-03-03T02:03:50.535Z,6.92
2019-03-03T02:06:16.362Z,6.92
2019-03-03T02:08:42.266Z,6.94
2019-03-03T02:11:08.108Z,6.95
2019-03-03T02:13:33.941Z,6.93
2019-03-03T02:15:59.886Z,6.95
2019-03-03T02:18:25.902Z,6.96
2019-03-03T02:20:51.745Z,6.95
2019-03-03T02:23:17.549Z,6.95
2019-03-03T02:25:43.488Z,6.93
2019-03-03T02:28:09.300Z,6.93
2019-03-03T02:30:35.939Z,6.93
2019-03-03T02:33:01.749Z,6.94
2019-03-03T02:35:27.616Z,6.94
2019-03-03T02:37:53.431Z,6.94
2019-03-03T02:40:19.244Z,6.95
2019-03-03T02:42:45.161Z,6.99
2019-03-03T02:45:12.860Z,6.98
2019-03-03T02:47:38.724Z,6.99
2019-03-03T02:50:07.738Z,7.00
2019-03-03T02:52:33.572Z,6.99
2019-03-03T02:54:59.382Z,6.96
2019-03-03T02:57:25.207Z,6.99
2019-03-03T02:59:51.017Z,7.01
2019-03-03T03:02:18.729Z,7.00
2019-03-03T03:04:44.553Z,7.00
2019-03-03T03:07:17.917Z,7.04
2019-03-03T03:09:51.647Z,7.05
2019-03-03T03:12:19.397Z,7.07
2019-03-03T03:14:47.131Z,7.06
2019-03-03T03:20:10.109Z,7.06
2019-03-03T03:22:55.821Z,7.07
2019-03-03T03:25:41.517Z,7.08
2019-03-03T03:28:47.125Z,7.00
2019-03-03T03:34:40.045Z,7.09
2019-03-03T03:37:25.736Z,7.07
2019-03-03T03:40:11.444Z,7.07
2019-03-03T03:42:57.135Z,7.04
2019-03-03T03:56:41.478Z,7.10
2019-03-03T03:59:27.180Z,7.13
2019-03-03T04:02:32.751Z,7.09
2019-03-03T04:08:12.563Z,7.07
2019-03-03T04:10:58.276Z,7.00
2019-03-03T04:14:03.851Z,7.03
2019-03-03T04:17:09.447Z,7.02
2019-03-03T04:25:05.734Z,7.00
2019-03-03T04:27:51.418Z,7.05
2019-03-03T04:36:04.939Z,6.95
2019-03-03T04:41:37.976Z,6.99
2019-03-03T04:47:11.014Z,6.97
2019-03-03T04:49:56.704Z,7.05
2019-03-03T04:52:55.603Z,7.02
2019-03-03T04:58:28.677Z,7.02
2019-03-03T05:01:14.365Z,7.02
2019-03-03T05:04:19.966Z,7.05
2019-03-03T05:07:25.549Z,6.97
2019-03-03T05:10:11.242Z,6.97
2019-03-03T05:12:56.940Z,6.94
2019-03-03T05:18:29.986Z,7.02
2019-03-03T05:20:55.816Z,7.03
2019-03-03T05:23:21.661Z,6.90
2019-03-03T05:26:07.445Z,7.03
2019-03-03T05:28:53.153Z,7.02
2019-03-03T05:31:38.966Z,7.00
2019-03-03T05:34:24.701Z,7.01
2019-03-03T05:37:10.395Z,7.00
2019-03-03T05:39:36.527Z,7.00
2019-03-03T05:42:02.364Z,7.01
2019-03-03T05:44:28.195Z,6.99
2019-03-03T05:46:54.031Z,7.02
2019-03-03T05:49:19.857Z,7.04
2019-03-03T05:51:45.687Z,7.04
2019-03-03T05:54:11.500Z,7.03
2019-03-03T05:56:37.297Z,7.04
2019-03-03T05:59:23.123Z,7.05
2019-03-03T06:01:48.963Z,7.04
2019-03-03T06:04:14.748Z,7.06
2019-03-03T06:06:40.604Z,7.10
2019-03-03T06:09:06.399Z,7.08
2019-03-03T06:11:32.632Z,7.15
2019-03-03T06:14:18.363Z,7.17
2019-03-03T06:17:04.085Z,7.14
2019-03-03T06:19:29.917Z,7.14
2019-03-03T06:21:55.768Z,7.15
2019-03-03T06:24:21.576Z,7.20
2019-03-03T06:26:47.407Z,7.19
2019-03-03T06:29:13.226Z,7.19
2019-03-03T06:31:39.046Z,7.24
2019-03-03T06:34:04.888Z,7.23
2019-03-03T06:36:30.730Z,7.25
2019-03-03T06:38:56.553Z,7.28
2019-03-03T06:41:22.378Z,7.29
2019-03-03T06:43:48.231Z,7.33
2019-03-03T06:46:14.069Z,7.34
2019-03-03T06:48:39.893Z,7.34
2019-03-03T06:51:05.732Z,7.41
2019-03-03T06:53:31.587Z,7.38
2019-03-03T06:55:57.362Z,7.41
2019-03-03T06:58:23.187Z,7.44
2019-03-03T07:00:49.009Z,7.46
2019-03-03T07:03:14.848Z,7.44
2019-03-03T07:05:40.657Z,7.51
2019-03-03T07:08:06.495Z,7.53
2019-03-03T07:10:32.321Z,7.56
2019-03-03T07:12:58.148Z,7.58
2019-03-03T07:15:23.979Z,7.60
2019-03-03T07:17:49.799Z,7.66
2019-03-03T07:20:15.621Z,7.71
2019-03-03T07:22:41.424Z,7.76
2019-03-03T07:25:48.908Z,7.78
2019-03-03T07:28:34.624Z,7.89
2019-03-03T07:31:00.473Z,7.89
2019-03-03T07:33:46.157Z,7.92
2019-03-03T07:36:11.985Z,8.03
2019-03-03T07:38:37.801Z,8.11
2019-03-03T07:41:03.628Z,8.14
2019-03-03T07:43:29.439Z,8.18
2019-03-03T07:45:55.255Z,8.24
2019-03-03T07:48:21.076Z,8.33
2019-03-03T07:50:46.924Z,8.35
2019-03-03T07:53:12.745Z,8.39
2019-03-03T07:55:38.591Z,8.43
2019-03-03T08:01:11.720Z,8.39
2019-03-03T08:03:37.541Z,8.36
2019-03-03T08:06:03.387Z,8.40
2019-03-03T08:08:29.223Z,8.39
2019-03-03T08:10:55.042Z,8.42
2019-03-03T08:13:20.862Z,8.44
2019-03-03T08:15:46.670Z,8.45
2019-03-03T08:18:12.495Z,8.43
2019-03-03T08:20:38.310Z,8.44
2019-03-03T08:23:24.126Z,8.43
2019-03-03T08:26:09.814Z,8.42
2019-03-03T08:28:35.656Z,8.42
2019-03-03T08:31:01.487Z,8.48
2019-03-03T08:33:27.333Z,8.49
2019-03-03T08:35:53.153Z,8.47
2019-03-03T08:38:18.969Z,8.49
2019-03-03T08:41:04.760Z,8.53
2019-03-03T08:43:50.467Z,8.54
2019-03-03T08:54:54.714Z,8.64
2019-03-03T08:57:40.407Z,8.63
2019-03-03T09:00:47.898Z,8.64
2019-03-03T09:03:33.608Z,8.61
2019-03-03T09:06:39.210Z,8.62
2019-03-03T09:09:44.786Z,8.70
2019-03-03T09:18:11.838Z,8.68
2019-03-03T09:26:12.096Z,8.65
2019-03-03T09:32:05.038Z,8.70
2019-03-03T09:35:10.623Z,8.68
2019-03-03T09:38:16.230Z,8.70
2019-03-03T09:41:01.927Z,8.70
2019-03-03T09:44:07.526Z,8.73
2019-03-03T09:46:53.235Z,8.73
2019-03-03T09:49:38.928Z,8.80
2019-03-03T09:52:24.662Z,8.82
2019-03-03T09:55:30.243Z,8.78
2019-03-03T09:58:15.969Z,8.78
2019-03-03T10:01:21.552Z,8.79
2019-03-03T10:04:07.266Z,8.79
2019-03-03T10:06:52.974Z,8.81
2019-03-03T10:10:00.470Z,8.79
2019-03-03T10:12:46.225Z,8.82
2019-03-03T10:15:51.807Z,8.93
2019-03-03T10:24:25.011Z,9.01
2019-03-03T10:27:10.684Z,9.01
2019-03-03T10:33:10.151Z,9.15
2019-03-03T10:35:55.872Z,9.15
2019-03-03T10:39:01.459Z,9.27
2019-03-03T10:42:07.038Z,9.31
2019-03-03T10:47:46.304Z,9.47
2019-03-03T10:53:25.421Z,9.58
2019-03-03T10:56:11.129Z,9.70
2019-03-03T10:58:56.926Z,9.77
2019-03-03T11:02:02.530Z,9.82
2019-03-03T11:04:48.229Z,9.82
2019-03-03T11:07:33.946Z,9.84
2019-03-03T11:13:26.960Z,9.75
2019-03-03T11:16:12.667Z,9.75
2019-03-03T11:18:58.364Z,9.83
2019-03-03T11:24:57.429Z,9.94
2019-03-03T11:28:03.032Z,9.98
2019-03-03T11:30:48.759Z,9.98
2019-03-03T11:33:34.445Z,9.99
2019-03-03T11:36:40.143Z,10.09
2019-03-03T11:39:47.605Z,10.12
2019-03-03T11:42:53.214Z,10.16
2019-03-03T11:48:46.160Z,10.13
2019-03-03T11:51:44.949Z,10.28
2019-03-03T11:57:33.531Z,10.35
2019-03-03T12:00:32.295Z,10.38
2019-03-03T12:03:13.598Z,10.33
2019-03-03T12:05:59.591Z,10.33
2019-03-03T12:08:45.299Z,10.39
2019-03-03T12:11:30.998Z,10.38
2019-03-03T12:14:16.706Z,10.39
2019-03-03T12:17:02.394Z,10.37
2019-03-03T12:20:07.998Z,10.40
2019-03-03T12:22:53.706Z,10.40
2019-03-03T12:25:59.278Z,10.36
2019-03-03T12:28:44.987Z,10.36
2019-03-03T12:34:18.027Z,10.42
2019-03-03T12:37:23.618Z,10.41
2019-03-03T12:40:29.624Z,10.42
2019-03-03T12:46:42.428Z,10.52
2019-03-03T12:49:28.170Z,10.52
2019-03-03T12:52:26.917Z,10.54
2019-03-03T12:55:12.674Z,10.61
2019-03-03T12:57:58.367Z,10.61
2019-03-03T13:03:37.740Z,10.57
2019-03-03T13:06:43.329Z,10.48
2019-03-03T13:09:49.036Z,10.48
2019-03-03T13:15:32.699Z,10.44
2019-03-03T13:18:18.400Z,10.44
2019-03-03T13:21:04.381Z,10.53
2019-03-03T13:24:09.987Z,10.48
2019-03-03T13:27:15.674Z,10.48
2019-03-03T13:30:01.394Z,10.54
2019-03-03T13:33:07.098Z,10.54
2019-03-03T13:39:00.278Z,10.50
2019-03-03T13:42:05.870Z,10.54
2019-03-03T13:44:31.709Z,10.54
2019-03-03T13:46:57.531Z,10.60
2019-03-03T13:49:23.371Z,10.61
2019-03-03T13:51:49.196Z,10.63
2019-03-03T13:54:15.035Z,10.64
2019-03-03T13:56:40.859Z,10.63
2019-03-03T13:59:06.712Z,10.68
2019-03-03T14:01:32.515Z,10.68
2019-03-03T14:04:18.352Z,10.69
2019-03-03T14:07:04.043Z,10.63
2019-03-03T14:09:29.898Z,10.63
2019-03-03T14:11:55.727Z,10.60
2019-03-03T14:14:21.559Z,10.59
2019-03-03T14:16:47.403Z,10.62
2019-03-03T14:19:54.904Z,10.57
2019-03-03T14:22:20.753Z,10.63
2019-03-03T14:24:46.569Z,10.58
2019-03-03T14:27:12.442Z,10.58
2019-03-03T14:29:38.261Z,10.56
2019-03-03T14:32:04.084Z,10.48
2019-03-03T14:34:29.898Z,10.43
2019-03-03T14:36:55.737Z,10.32
2019-03-03T14:39:21.574Z,10.31
2019-03-03T14:41:47.429Z,10.32
2019-03-03T14:44:13.255Z,10.29
2019-03-03T14:46:46.036Z,10.28
2019-03-03T14:49:11.880Z,10.22
2019-03-03T14:51:37.708Z,10.26
2019-03-03T14:54:03.919Z,10.26
2019-03-03T14:56:49.629Z,10.23
2019-03-03T14:59:35.348Z,10.23
2019-03-03T15:02:01.184Z,10.23
2019-03-03T15:04:27.029Z,10.23
2019-03-03T15:06:52.844Z,10.27
2019-03-03T15:09:38.565Z,10.24
2019-03-03T15:12:04.403Z,10.22
2019-03-03T15:14:50.240Z,10.22
2019-03-03T15:17:35.967Z,10.26
2019-03-03T15:20:43.478Z,10.26
2019-03-03T15:23:09.423Z,10.22
2019-03-03T15:25:35.365Z,10.23
2019-03-03T15:28:01.206Z,10.24
2019-03-03T15:30:27.020Z,10.23
2019-03-03T15:32:52.856Z,10.18
2019-03-03T15:35:38.555Z,10.23
2019-03-03T15:40:56.791Z,10.26
2019-03-03T15:43:42.524Z,10.19
2019-03-03T15:46:28.252Z,10.22
2019-03-03T15:48:54.109Z,10.22
2019-03-03T15:51:19.966Z,10.22
2019-03-03T15:53:45.811Z,10.29
2019-03-03T15:56:11.648Z,10.31
2019-03-03T15:58:37.508Z,10.38
2019-03-03T16:01:44.975Z,10.38
2019-03-03T16:04:30.707Z,10.34
2019-03-03T16:07:16.416Z,10.39
2019-03-03T16:10:03.362Z,10.40
2019-03-03T16:12:29.199Z,10.40
2019-03-03T16:14:55.010Z,10.39
2019-03-03T16:17:20.871Z,10.41
2019-03-03T16:20:06.670Z,10.41
2019-03-03T16:22:52.395Z,10.41
2019-03-03T16:25:59.913Z,10.41
2019-03-03T16:28:25.737Z,10.42
2019-03-03T16:30:51.560Z,10.43
2019-03-03T16:33:20.890Z,10.42
2019-03-03T16:35:45.138Z,10.37
2019-03-03T16:38:10.980Z,10.37
2019-03-03T16:40:39.843Z,10.34
2019-03-03T16:43:04.616Z,10.34
2019-03-03T16:46:12.088Z,10.34
2019-03-03T16:48:37.982Z,10.27
2019-03-03T16:51:03.924Z,10.27
2019-03-03T16:53:29.764Z,10.24
2019-03-03T16:55:55.608Z,10.22
2019-03-03T16:58:21.477Z,10.23
2019-03-03T17:00:47.297Z,10.24
2019-03-03T17:03:13.135Z,10.20
2019-03-03T17:05:38.988Z,10.22
2019-03-03T17:08:04.818Z,10.18
2019-03-03T17:10:30.672Z,10.18
2019-03-03T17:12:56.496Z,10.19
2019-03-03T17:16:03.987Z,10.16
2019-03-03T17:18:30.185Z,10.16
2019-03-03T17:20:56.018Z,10.18
2019-03-03T17:23:21.814Z,10.12
2019-03-03T17:25:47.701Z,10.15
2019-03-03T17:28:13.477Z,10.16
2019-03-03T17:30:39.337Z,10.14
2019-03-03T17:33:05.259Z,10.11
2019-03-03T17:35:31.134Z,10.14
2019-03-03T17:37:57.038Z,10.15
2019-03-03T17:41:04.541Z,10.12
2019-03-03T17:43:30.396Z,10.12
2019-03-03T17:45:56.219Z,10.12
2019-03-03T17:48:22.077Z,10.12
2019-03-03T17:50:47.902Z,10.07
2019-03-03T17:53:13.744Z,10.11
2019-03-03T17:55:39.571Z,10.11
2019-03-03T17:58:25.395Z,10.07
2019-03-03T18:00:51.214Z,10.10
2019-03-03T18:03:17.034Z,10.11
2019-03-03T18:05:43.134Z,10.13
2019-03-03T18:08:08.960Z,10.07
2019-03-03T18:10:34.793Z,10.06
2019-03-03T18:13:00.622Z,10.06
2019-03-03T18:15:26.475Z,10.03
2019-03-03T18:17:52.382Z,10.07
2019-03-03T18:20:59.876Z,10.04
2019-03-03T18:23:45.573Z,9.93
2019-03-03T18:26:53.064Z,9.93
2019-03-03T18:29:18.897Z,9.96
2019-03-03T18:31:44.733Z,9.91
2019-03-03T18:34:10.558Z,9.94
2019-03-03T18:36:36.424Z,9.90
2019-03-03T18:39:43.897Z,9.89
2019-03-03T18:42:09.744Z,9.91
2019-03-03T18:44:35.554Z,9.84
2019-03-03T18:47:01.422Z,9.85
2019-03-03T18:49:27.288Z,9.83
2019-03-03T18:51:53.092Z,9.87
2019-03-03T18:54:18.925Z,9.84
2019-03-03T18:56:44.745Z,9.84
2019-03-03T18:59:10.586Z,9.84
2019-03-03T19:04:43.638Z,9.83
2019-03-03T19:07:29.420Z,9.83
2019-03-03T19:09:55.268Z,9.82
2019-03-03T19:12:21.094Z,9.77
2019-03-03T19:14:46.928Z,9.76
2019-03-03T19:17:12.772Z,9.80
2019-03-03T19:19:38.637Z,9.78
2019-03-03T19:22:04.460Z,9.80
2019-03-03T19:24:30.299Z,9.77
2019-03-03T19:26:56.120Z,9.75
2019-03-03T19:29:21.957Z,9.71
2019-03-03T19:31:47.810Z,9.69
2019-03-03T19:34:13.648Z,9.66
2019-03-03T19:36:39.479Z,9.66
2019-03-03T19:39:25.310Z,9.68
2019-03-03T19:41:51.160Z,9.64
2019-03-03T19:44:17.023Z,9.64
2019-03-03T19:46:42.896Z,9.67
2019-03-03T19:49:08.834Z,9.68
2019-03-03T19:54:06.783Z,9.50
2019-03-03T19:56:32.692Z,9.50
2019-03-03T19:58:58.498Z,9.59
2019-03-03T20:01:24.370Z,9.56
2019-03-03T20:04:31.843Z,9.61
2019-03-03T20:06:57.712Z,9.55
2019-03-03T20:09:23.569Z,9.61
2019-03-03T20:11:49.438Z,9.56
2019-03-03T20:14:15.263Z,9.61
2019-03-03T20:16:41.145Z,9.59
2019-03-03T20:19:06.998Z,9.63
2019-03-03T20:21:33.123Z,9.67
2019-03-03T20:23:59.019Z,9.67
2019-03-03T20:26:24.897Z,9.68
2019-03-03T20:28:50.877Z,9.70
2019-03-03T20:31:16.714Z,9.59
2019-03-03T20:33:42.553Z,9.60
2019-03-03T20:36:08.382Z,9.47
2019-03-03T20:38:34.248Z,9.57
2019-03-03T20:41:00.091Z,9.61
2019-03-03T20:43:25.993Z,9.61
2019-03-03T20:45:51.962Z,9.57
2019-03-03T20:48:17.825Z,9.59
2019-03-03T20:50:43.666Z,9.57
2019-03-03T20:53:09.552Z,9.37
2019-03-03T20:55:35.399Z,9.26
2019-03-03T20:58:01.246Z,9.18
2019-03-03T21:01:08.736Z,9.07
2019-03-03T21:03:34.563Z,9.09
2019-03-03T21:06:00.403Z,9.13
2019-03-03T21:08:26.233Z,9.23
2019-03-03T21:10:52.075Z,9.28
2019-03-03T21:13:17.905Z,9.22
2019-03-03T21:15:43.743Z,8.99
2019-03-03T21:18:09.577Z,9.08
2019-03-03T21:20:35.431Z,9.08
2019-03-03T21:23:01.263Z,8.99
2019-03-03T21:25:27.104Z,9.03
2019-03-03T21:27:52.948Z,8.98
2019-03-03T21:30:38.643Z,9.11
2019-03-03T21:33:04.498Z,9.06
2019-03-03T21:35:30.332Z,8.95
2019-03-03T21:37:56.172Z,8.90
2019-03-03T21:41:03.648Z,8.84
2019-03-03T21:43:29.493Z,8.76
2019-03-03T21:45:55.323Z,8.77
2019-03-03T21:48:21.155Z,8.83
2019-03-03T21:50:46.989Z,8.77
2019-03-03T21:53:12.844Z,9.03
2019-03-03T21:55:38.681Z,9.00
2019-03-03T21:58:04.869Z,8.92
2019-03-03T22:00:50.575Z,8.81
2019-03-03T22:03:36.292Z,8.91
2019-03-03T22:06:02.152Z,8.91
2019-03-03T22:08:27.953Z,9.10
2019-03-03T22:10:53.798Z,9.19
2019-03-03T22:13:19.623Z,9.04
2019-03-03T22:15:45.460Z,8.87
2019-03-03T22:18:11.294Z,9.11
2019-03-03T22:20:37.133Z,9.34
2019-03-03T22:23:03.150Z,9.37
2019-03-03T22:25:48.964Z,9.39
2019-03-03T22:28:14.806Z,9.38
2019-03-03T22:30:40.634Z,9.42
2019-03-03T22:33:06.457Z,9.47
2019-03-03T22:35:32.283Z,9.48
2019-03-03T22:37:58.126Z,9.51
2019-03-03T22:41:05.599Z,9.52
2019-03-03T22:43:51.321Z,9.50
2019-03-03T22:46:17.139Z,9.50
2019-03-03T22:48:42.958Z,9.61
2019-03-03T22:51:08.793Z,9.62
2019-03-03T22:53:34.962Z,9.60
2019-03-03T22:56:00.790Z,9.60
2019-03-03T22:58:26.632Z,9.63
2019-03-03T23:01:34.092Z,9.68
2019-03-03T23:04:41.601Z,9.64
2019-03-03T23:07:47.179Z,9.64
2019-03-03T23:10:52.801Z,9.68
2019-03-03T23:14:00.291Z,9.68
2019-03-03T23:17:07.791Z,9.82
2019-03-03T23:20:15.268Z,9.82
2019-03-03T23:23:20.829Z,9.82
2019-03-03T23:29:00.073Z,9.86
2019-03-03T23:31:25.904Z,9.80
2019-03-03T23:33:51.726Z,9.86
2019-03-03T23:36:17.564Z,9.88
2019-03-03T23:38:43.386Z,9.88
2019-03-03T23:41:09.201Z,9.90
2019-03-03T23:43:35.008Z,9.89
2019-03-03T23:46:00.894Z,9.85
2019-03-03T23:48:26.723Z,9.92
2019-03-03T23:50:52.582Z,9.93
2019-03-03T23:53:18.422Z,9.95
2019-03-03T23:55:44.252Z,9.94
2019-03-03T23:58:10.088Z,9.94
